Time;durP1;ratioP1;P1;durP2;ratioP2;P2;SDS_P1;SDS_P2;PMS_P1;PMS_P2;Temp;Humidity;BMP_temperature;BMP_pressure;BME280_temperature;BME280_humidity;BME280_pressure;Samples;Min_cycle;Max_cycle;Signal;HPM_P1;HPM_P2
2023/10/24 00:00:06;;;;;;;10.27;7.13;;;;;11.30;99716.00;;;;10585545;27;20599;-71
2023/10/24 00:05:14;;;;;;;12.27;7.80;;;;;11.20;99713.00;;;;10581929;27;20200;-71
2023/10/24 00:10:16;;;;;;;11.77;8.00;;;;;11.20;99713.00;;;;10579365;27;20239;-71
2023/10/24 00:15:19;;;;;;;10.57;8.30;;;;;11.20;99704.00;;;;10578700;27;20202;-71
2023/10/24 00:20:20;;;;;;;8.87;6.53;;;;;11.10;99701.00;;;;10543329;27;20227;-72
2023/10/24 00:25:22;;;;;;;8.83;5.80;;;;;11.10;99690.00;;;;10559942;27;20200;-71
2023/10/24 00:30:24;;;;;;;5.53;4.47;;;;;11.10;99688.00;;;;10560527;27;20315;-72
2023/10/24 00:35:26;;;;;;;4.33;3.93;;;;;11.00;99693.00;;;;10586150;27;20753;-72
2023/10/24 00:40:29;;;;;;;8.10;4.27;;;;;11.00;99692.00;;;;10544281;27;20212;-70
2023/10/24 00:45:33;;;;;;;5.03;4.33;;;;;10.90;99682.00;;;;10585522;27;20192;-71
2023/10/24 00:50:36;;;;;;;4.60;4.03;;;;;10.90;99692.00;;;;10578376;27;20211;-70
2023/10/24 00:55:39;;;;;;;7.60;4.90;;;;;10.80;99697.00;;;;10566490;27;20204;-71
2023/10/24 01:00:43;;;;;;;6.43;5.03;;;;;10.80;99706.00;;;;10586890;27;20204;-72
2023/10/24 01:05:47;;;;;;;6.70;4.83;;;;;10.80;99701.00;;;;10582121;27;20287;-69
2023/10/24 01:10:49;;;;;;;5.17;4.20;;;;;10.80;99705.00;;;;10583472;27;20297;-70
2023/10/24 01:15:51;;;;;;;6.20;4.80;;;;;10.70;99709.00;;;;10569752;27;20214;-70
2023/10/24 01:20:53;;;;;;;6.47;5.33;;;;;10.60;99717.00;;;;10585277;27;20203;-70
2023/10/24 01:25:56;;;;;;;5.80;4.63;;;;;10.60;99719.00;;;;10586315;27;20243;-72
2023/10/24 01:30:58;;;;;;;8.60;5.83;;;;;10.70;99713.00;;;;10589900;27;20263;-72
2023/10/24 01:36:00;;;;;;;7.23;5.50;;;;;10.70;99715.00;;;;10561083;27;20295;-70
2023/10/24 01:41:02;;;;;;;8.90;6.03;;;;;10.70;99711.00;;;;10571047;27;20196;-71
2023/10/24 01:46:05;;;;;;;10.63;6.00;;;;;10.70;99708.00;;;;10565458;27;20246;-71
2023/10/24 01:51:07;;;;;;;8.07;5.90;;;;;10.70;99710.00;;;;10570276;27;20255;-71
2023/10/24 01:56:13;;;;;;;7.67;5.67;;;;;10.70;99708.00;;;;10590521;27;20844;-72
2023/10/24 02:01:14;;;;;;;10.07;5.83;;;;;10.70;99713.00;;;;10567736;27;20188;-71
2023/10/24 02:06:16;;;;;;;11.80;7.50;;;;;10.70;99718.00;;;;10553416;27;20203;-71
2023/10/24 02:11:18;;;;;;;9.43;7.00;;;;;10.70;99721.00;;;;10569789;27;20207;-71
2023/10/24 02:16:20;;;;;;;10.73;7.30;;;;;10.80;99727.00;;;;10584363;27;20211;-71
2023/10/24 02:21:22;;;;;;;8.53;7.27;;;;;10.80;99726.00;;;;10584593;27;20764;-71
2023/10/24 02:26:24;;;;;;;11.50;6.50;;;;;10.80;99730.00;;;;10584349;27;20234;-71
2023/10/24 02:31:26;;;;;;;10.40;6.00;;;;;10.80;99735.00;;;;10574053;27;20311;-71
2023/10/24 02:36:28;;;;;;;7.50;5.97;;;;;10.70;99733.00;;;;10568136;27;20211;-72
2023/10/24 02:41:30;;;;;;;8.13;6.10;;;;;10.70;99726.00;;;;10567938;27;20235;-71
2023/10/24 02:46:33;;;;;;;6.90;5.67;;;;;10.80;99720.00;;;;10568648;27;20200;-71
2023/10/24 02:51:36;;;;;;;8.10;6.00;;;;;10.70;99727.00;;;;10556834;27;20293;-71
2023/10/24 02:56:38;;;;;;;6.40;5.07;;;;;10.70;99729.00;;;;10586835;27;20195;-71
2023/10/24 03:01:40;;;;;;;8.67;5.30;;;;;10.70;99726.00;;;;10585263;27;20550;-71
2023/10/24 03:06:42;;;;;;;9.43;5.23;;;;;10.70;99727.00;;;;10584398;27;20608;-71
2023/10/24 03:11:43;;;;;;;6.73;4.87;;;;;10.70;99732.00;;;;10563699;27;20212;-71
2023/10/24 03:16:45;;;;;;;5.90;4.50;;;;;10.70;99734.00;;;;10583729;27;20204;-71
2023/10/24 03:21:47;;;;;;;6.60;5.33;;;;;10.70;99745.00;;;;10579939;27;20224;-71
2023/10/24 03:26:49;;;;;;;7.03;5.67;;;;;10.70;99742.00;;;;10562146;27;20234;-71
2023/10/24 03:31:51;;;;;;;8.93;5.83;;;;;10.70;99754.00;;;;10581848;27;20231;-71
2023/10/24 03:36:53;;;;;;;7.67;6.77;;;;;10.70;99743.00;;;;10584774;27;20720;-71
2023/10/24 03:41:55;;;;;;;8.73;7.10;;;;;10.70;99738.00;;;;10584239;27;20200;-71
2023/10/24 03:46:57;;;;;;;11.43;7.73;;;;;10.70;99731.00;;;;10587045;27;20200;-72
2023/10/24 03:51:59;;;;;;;10.83;9.50;;;;;10.70;99723.00;;;;10589825;27;20216;-72
2023/10/24 03:57:01;;;;;;;12.10;9.00;;;;;10.80;99723.00;;;;10571759;27;20282;-71
2023/10/24 04:02:03;;;;;;;12.30;9.13;;;;;10.80;99711.00;;;;10592182;27;20206;-73
2023/10/24 04:07:05;;;;;;;13.47;9.30;;;;;10.80;99709.00;;;;10591960;27;20252;-73
2023/10/24 04:12:07;;;;;;;11.93;8.93;;;;;10.80;99710.00;;;;10566468;27;20273;-73
2023/10/24 04:17:09;;;;;;;12.73;10.07;;;;;10.80;99715.00;;;;10586539;27;20731;-73
2023/10/24 04:22:11;;;;;;;15.13;10.33;;;;;10.80;99722.00;;;;10599887;27;20192;-73
2023/10/24 04:27:12;;;;;;;17.10;11.80;;;;;10.80;99732.00;;;;10601447;27;20969;-73
2023/10/24 04:32:14;;;;;;;15.90;11.77;;;;;10.80;99737.00;;;;10595779;27;20310;-73
2023/10/24 04:37:19;;;;;;;15.97;10.87;;;;;10.90;99732.00;;;;10574048;27;20200;-73
2023/10/24 04:42:21;;;;;;;13.63;11.03;;;;;10.90;99718.00;;;;10594224;27;20199;-73
2023/10/24 04:47:24;;;;;;;16.13;10.70;;;;;10.90;99730.00;;;;10588771;27;20844;-73
2023/10/24 04:52:26;;;;;;;16.00;11.53;;;;;10.80;99726.00;;;;10572907;28;20266;-73
2023/10/24 04:57:28;;;;;;;14.73;11.63;;;;;10.80;99723.00;;;;10568646;27;20204;-73
2023/10/24 05:02:30;;;;;;;21.10;11.63;;;;;10.80;99715.00;;;;10590858;27;20196;-73
2023/10/24 05:07:32;;;;;;;15.13;11.10;;;;;10.70;99710.00;;;;10594736;27;20246;-73
2023/10/24 05:12:34;;;;;;;16.30;11.97;;;;;10.70;99697.00;;;;10579128;27;20227;-73
2023/10/24 05:17:36;;;;;;;15.83;11.07;;;;;10.70;99705.00;;;;10572342;27;20279;-72
2023/10/24 05:22:38;;;;;;;14.43;11.33;;;;;10.70;99714.00;;;;10573630;27;20223;-73
2023/10/24 05:27:40;;;;;;;14.30;11.10;;;;;10.70;99724.00;;;;10599216;27;20262;-73
2023/10/24 05:32:41;;;;;;;15.63;11.27;;;;;10.60;99728.00;;;;10595567;27;20261;-72
2023/10/24 05:37:43;;;;;;;16.83;11.07;;;;;10.60;99716.00;;;;10588541;27;20860;-73
2023/10/24 05:42:45;;;;;;;19.53;11.57;;;;;10.60;99722.00;;;;10591914;27;20196;-73
2023/10/24 05:47:47;;;;;;;14.67;10.40;;;;;10.40;99719.00;;;;10586920;27;20196;-73
2023/10/24 05:52:49;;;;;;;14.70;9.03;;;;;10.30;99721.00;;;;10595457;27;20220;-73
2023/10/24 05:57:51;;;;;;;15.77;10.13;;;;;10.20;99735.00;;;;10542589;27;20212;-72
2023/10/24 06:02:53;;;;;;;11.13;9.53;;;;;10.10;99739.00;;;;10571050;27;20280;-72
2023/10/24 06:07:55;;;;;;;14.13;10.33;;;;;10.10;99739.00;;;;10599992;27;20255;-73
2023/10/24 06:12:57;;;;;;;16.47;10.77;;;;;10.10;99731.00;;;;10588076;27;20223;-73
2023/10/24 06:17:59;;;;;;;12.30;10.10;;;;;10.10;99729.00;;;;10564539;27;20210;-73
2023/10/24 06:23:01;;;;;;;16.00;9.00;;;;;10.10;99724.00;;;;10578596;27;20322;-72
2023/10/24 06:28:03;;;;;;;12.27;9.70;;;;;10.00;99729.00;;;;10589175;27;20295;-74
2023/10/24 06:33:05;;;;;;;16.07;10.53;;;;;10.00;99718.00;;;;10588664;27;20223;-73
2023/10/24 06:38:07;;;;;;;12.53;9.13;;;;;10.10;99716.00;;;;10588303;27;20198;-73
2023/10/24 06:43:08;;;;;;;12.90;8.83;;;;;10.20;99713.00;;;;10570304;27;20286;-73
2023/10/24 06:48:11;;;;;;;13.67;8.60;;;;;10.30;99703.00;;;;10593917;27;20203;-72
2023/10/24 06:53:13;;;;;;;12.23;8.30;;;;;10.30;99707.00;;;;10573671;27;20216;-73
2023/10/24 06:58:15;;;;;;;14.47;7.70;;;;;10.40;99715.00;;;;10566134;27;20266;-73
2023/10/24 07:03:16;;;;;;;11.93;7.60;;;;;10.40;99709.00;;;;10561724;27;20285;-72
2023/10/24 07:08:19;;;;;;;11.80;7.70;;;;;10.50;99701.00;;;;10573585;27;20211;-73
2023/10/24 07:13:21;;;;;;;12.73;7.80;;;;;10.70;99702.00;;;;10593846;27;20807;-73
2023/10/24 07:18:23;;;;;;;10.77;8.13;;;;;10.90;99690.00;;;;10587306;27;20210;-73
2023/10/24 07:23:25;;;;;;;14.20;8.90;;;;;11.30;99701.00;;;;10569836;27;21003;-72
2023/10/24 07:28:27;;;;;;;12.23;9.40;;;;;11.50;99711.00;;;;10592197;27;20196;-73
2023/10/24 07:33:29;;;;;;;9.93;8.00;;;;;11.60;99715.00;;;;10587546;27;20550;-70
2023/10/24 07:38:31;;;;;;;11.87;8.80;;;;;11.70;99719.00;;;;10584921;27;20253;-72
2023/10/24 07:43:33;;;;;;;10.63;7.73;;;;;12.00;99701.00;;;;10582387;27;20713;-70
2023/10/24 07:48:35;;;;;;;12.40;7.90;;;;;12.10;99712.00;;;;10565910;27;20203;-71
2023/10/24 07:53:37;;;;;;;9.32;6.82;;;;;12.30;99715.00;;;;10591096;27;20793;-71
2023/10/24 07:58:39;;;;;;;9.85;7.57;;;;;12.70;99717.00;;;;10567782;27;20253;-70
2023/10/24 08:03:41;;;;;;;11.27;7.72;;;;;13.00;99716.00;;;;10585474;27;20191;-71
2023/10/24 08:08:43;;;;;;;15.55;7.80;;;;;13.20;99719.00;;;;10593091;27;20196;-71
2023/10/24 08:13:45;;;;;;;11.50;8.45;;;;;13.20;99725.00;;;;10583158;27;20207;-71
2023/10/24 08:18:47;;;;;;;11.00;7.57;;;;;13.10;99711.00;;;;10585126;27;20198;-71
2023/10/24 08:23:49;;;;;;;12.73;7.85;;;;;12.90;99716.00;;;;10593199;27;20284;-70
2023/10/24 08:28:51;;;;;;;13.30;8.27;;;;;12.80;99722.00;;;;10585406;27;20192;-72
2023/10/24 08:33:53;;;;;;;13.23;8.10;;;;;12.70;99738.00;;;;10571170;27;20195;-72
2023/10/24 08:38:55;;;;;;;10.50;7.55;;;;;12.60;99742.00;;;;10542510;27;20295;-71
2023/10/24 08:43:57;;;;;;;8.48;7.50;;;;;12.50;99743.00;;;;10579771;27;20866;-74
2023/10/24 08:49:02;;;;;;;10.13;8.40;;;;;12.50;99745.00;;;;10589361;27;20207;-74
2023/10/24 08:54:05;;;;;;;12.05;7.40;;;;;12.50;99740.00;;;;10571128;27;20199;-74
2023/10/24 08:59:08;;;;;;;10.77;8.43;;;;;12.50;99733.00;;;;10582535;27;20293;-74
2023/10/24 09:04:13;;;;;;;10.98;8.60;;;;;12.50;99733.00;;;;10580589;27;20211;-74
2023/10/24 09:09:15;;;;;;;10.40;7.82;;;;;12.50;99735.00;;;;10582976;27;20300;-74
2023/10/24 09:14:16;;;;;;;9.07;6.28;;;;;12.40;99730.00;;;;10596862;27;20199;-74
2023/10/24 09:19:19;;;;;;;7.43;5.93;;;;;12.30;99732.00;;;;10577568;27;20196;-74
2023/10/24 09:24:21;;;;;;;7.43;5.83;;;;;12.20;99737.00;;;;10590614;27;20736;-74
2023/10/24 09:29:27;;;;;;;8.87;6.00;;;;;12.10;99733.00;;;;10592507;27;20628;-74
2023/10/24 09:34:31;;;;;;;9.60;5.60;;;;;12.10;99734.00;;;;10582549;27;20796;-74
2023/10/24 09:39:56;;;;;;;10.15;5.90;;;;;12.00;99740.00;;;;10531832;27;20218;-74
2023/10/24 09:45:01;;;;;;;8.37;5.20;;;;;11.90;99730.00;;;;10527764;27;20220;-74
2023/10/24 09:50:07;;;;;;;7.83;5.63;;;;;11.90;99771.00;;;;10547834;27;20223;-74
2023/10/24 09:55:13;;;;;;;11.20;5.00;;;;;11.80;99770.00;;;;10541908;27;20251;-72
2023/10/24 10:00:16;;;;;;;7.30;2.37;;;;;11.70;99784.00;;;;10534091;28;20203;-71
2023/10/24 10:05:18;;;;;;;5.37;2.10;;;;;11.50;99784.00;;;;10520841;27;20222;-71
2023/10/24 10:10:23;;;;;;;3.40;1.70;;;;;11.30;99777.00;;;;10553949;27;20265;-72
2023/10/24 10:15:55;;;;;;;4.10;2.00;;;;;11.30;99780.00;;;;10538994;27;20187;-71
2023/10/24 10:21:20;;;;;;;5.43;2.60;;;;;11.20;99765.00;;;;10530799;27;20275;-72
2023/10/24 10:26:50;;;;;;;2.50;1.87;;;;;11.10;99779.00;;;;10527913;28;20319;-72
2023/10/24 10:32:13;;;;;;;5.00;1.83;;;;;11.10;99767.00;;;;10553095;27;21183;-71
2023/10/24 10:37:35;;;;;;;3.40;2.23;;;;;11.20;99776.00;;;;10545795;27;20196;-71
2023/10/24 10:42:51;;;;;;;5.03;3.00;;;;;11.40;99753.00;;;;10520673;27;20246;-71
2023/10/24 10:47:56;;;;;;;5.57;3.37;;;;;11.70;99755.00;;;;10523895;27;20220;-71
2023/10/24 10:53:30;;;;;;;4.27;3.10;;;;;11.80;99749.00;;;;10538383;27;20211;-72
2023/10/24 10:58:50;;;;;;;4.03;3.03;;;;;12.20;99739.00;;;;10520765;27;20293;-72
2023/10/24 11:03:56;;;;;;;3.97;2.30;;;;;12.60;99735.00;;;;10545435;28;20208;-71
2023/10/24 11:09:13;;;;;;;3.55;2.28;;;;;12.60;99711.00;;;;10545234;27;20242;-70
2023/10/24 11:14:21;;;;;;;3.78;2.17;;;;;13.10;99708.00;;;;10534186;27;20208;-70
2023/10/24 11:19:26;;;;;;;3.08;1.90;;;;;13.80;99698.00;;;;10547882;27;20287;-70
2023/10/24 11:24:29;;;;;;;3.10;2.33;;;;;14.90;99705.00;;;;10527847;27;20216;-72
2023/10/24 11:29:31;;;;;;;5.97;3.33;;;;;15.20;99701.00;;;;10538138;27;20254;-72
2023/10/24 11:34:33;;;;;;;4.32;2.05;;;;;15.40;99674.00;;;;10520401;27;20262;-69
2023/10/24 11:39:35;;;;;;;1.42;1.33;;;;;15.30;99673.00;;;;10527446;28;20207;-70
2023/10/24 11:44:39;;;;;;;1.63;1.30;;;;;15.20;99665.00;;;;10532290;27;20340;-71
2023/10/24 11:49:41;;;;;;;4.82;1.70;;;;;15.30;99668.00;;;;10522845;28;20208;-73
2023/10/24 11:54:51;;;;;;;1.52;1.10;;;;;15.30;99667.00;;;;10525482;27;20196;-70
2023/10/24 11:59:54;;;;;;;1.23;1.13;;;;;15.60;99675.00;;;;10553540;27;20770;-70
2023/10/24 12:04:56;;;;;;;5.88;1.60;;;;;15.70;99663.00;;;;10542138;27;20882;-70
2023/10/24 12:10:08;;;;;;;3.17;1.75;;;;;15.90;99679.00;;;;10543817;27;20233;-70
2023/10/24 12:15:10;;;;;;;1.70;1.30;;;;;15.60;99670.00;;;;10542692;27;20872;-73
2023/10/24 12:20:12;;;;;;;2.28;1.17;;;;;16.10;99662.00;;;;10549895;27;20196;-74
2023/10/24 12:25:16;;;;;;;3.85;1.48;;;;;16.30;99664.00;;;;10546608;27;20204;-73
2023/10/24 12:30:19;;;;;;;1.40;1.30;;;;;16.40;99661.00;;;;10546145;28;20208;-74
2023/10/24 12:35:21;;;;;;;1.42;1.30;;;;;15.80;99670.00;;;;10543623;28;20723;-73
2023/10/24 12:40:23;;;;;;;3.97;1.60;;;;;15.60;99666.00;;;;10524958;28;20197;-73
2023/10/24 12:45:24;;;;;;;2.58;1.80;;;;;15.80;99677.00;;;;10545166;28;20189;-73
2023/10/24 12:50:26;;;;;;;7.32;2.08;;;;;15.90;99678.00;;;;10534550;28;20220;-73
2023/10/24 12:55:28;;;;;;;8.02;1.92;;;;;15.80;99675.00;;;;10543701;28;20286;-73
2023/10/24 13:00:31;;;;;;;3.25;2.00;;;;;15.50;99686.00;;;;10534391;28;20196;-73
2023/10/24 13:05:33;;;;;;;8.35;1.90;;;;;15.20;99669.00;;;;10522123;28;20210;-73
2023/10/24 13:10:35;;;;;;;2.30;2.03;;;;;15.40;99680.00;;;;10547588;28;20889;-73
2023/10/24 13:15:37;;;;;;;4.90;1.95;;;;;15.00;99671.00;;;;10558916;28;20208;-73
2023/10/24 13:20:39;;;;;;;6.60;2.10;;;;;14.80;99666.00;;;;10546623;28;20231;-72
2023/10/24 13:25:41;;;;;;;4.22;1.95;;;;;14.40;99661.00;;;;10524848;28;20295;-69
2023/10/24 13:30:44;;;;;;;4.22;1.90;;;;;14.40;99676.00;;;;10540815;28;20216;-71
2023/10/24 13:36:06;;;;;;;4.50;1.92;;;;;14.30;99666.00;;;;10522656;28;20254;-70
2023/10/24 13:41:15;;;;;;;5.45;2.20;;;;;14.10;99656.00;;;;10513245;28;20710;-70
2023/10/24 13:46:17;;;;;;;3.83;1.90;;;;;14.20;99666.00;;;;10538737;27;20248;-70
2023/10/24 13:51:19;;;;;;;4.28;2.10;;;;;14.30;99668.00;;;;10541843;27;20219;-69
2023/10/24 13:56:22;;;;;;;6.43;1.63;;;;;14.60;99662.00;;;;10531890;27;20264;-70
2023/10/24 14:01:24;;;;;;;3.03;1.50;;;;;14.50;99657.00;;;;10522355;27;21084;-71
2023/10/24 14:06:26;;;;;;;9.60;2.08;;;;;14.90;99670.00;;;;10538795;28;20283;-71
2023/10/24 14:11:27;;;;;;;4.90;1.75;;;;;15.10;99658.00;;;;10549011;27;20213;-70
2023/10/24 14:16:30;;;;;;;6.13;1.60;;;;;15.00;99658.00;;;;10546462;27;20227;-71
2023/10/24 14:21:33;;;;;;;5.97;1.75;;;;;14.90;99659.00;;;;10529221;27;20201;-70
2023/10/24 14:26:35;;;;;;;8.05;1.90;;;;;14.80;99662.00;;;;10539991;28;20686;-70
2023/10/24 14:31:37;;;;;;;6.00;1.80;;;;;14.80;99672.00;;;;10544203;27;20204;-72
2023/10/24 14:36:43;;;;;;;5.63;1.50;;;;;14.50;99659.00;;;;10552728;27;20284;-71
2023/10/24 14:41:45;;;;;;;7.00;1.67;;;;;14.40;99650.00;;;;10527472;28;20212;-71
2023/10/24 14:46:47;;;;;;;5.68;1.48;;;;;14.30;99633.00;;;;10544037;28;20181;-72
2023/10/24 14:51:49;;;;;;;4.85;1.50;;;;;14.30;99625.00;;;;10539651;28;20877;-71
2023/10/24 14:56:51;;;;;;;6.40;2.05;;;;;13.90;99653.00;;;;10543145;27;20195;-71
2023/10/24 15:01:55;;;;;;;4.60;1.92;;;;;13.80;99663.00;;;;10545388;28;20238;-71
2023/10/24 15:06:57;;;;;;;5.35;1.50;;;;;13.70;99676.00;;;;10544000;27;20205;-71
2023/10/24 15:11:59;;;;;;;4.47;1.50;;;;;13.60;99679.00;;;;10541074;27;20325;-72
2023/10/24 15:17:01;;;;;;;1.60;1.10;;;;;13.50;99676.00;;;;10548380;27;20679;-72
2023/10/24 15:22:04;;;;;;;4.18;1.33;;;;;13.40;99677.00;;;;10548082;28;20274;-71
2023/10/24 15:27:05;;;;;;;2.25;0.88;;;;;13.20;99672.00;;;;10530240;27;20200;-71
2023/10/24 15:32:11;;;;;;;3.72;1.02;;;;;12.90;99687.00;;;;10546252;27;20798;-71
2023/10/24 15:37:13;;;;;;;3.35;1.23;;;;;12.70;99689.00;;;;10545878;27;20197;-72
2023/10/24 15:42:17;;;;;;;2.45;1.23;;;;;12.50;99679.00;;;;10508693;27;20296;-73
2023/10/24 15:47:19;;;;;;;4.28;1.00;;;;;12.30;99693.00;;;;10523960;28;20235;-73
2023/10/24 15:52:21;;;;;;;2.60;1.20;;;;;12.20;99706.00;;;;10545116;27;20270;-73
2023/10/24 15:57:26;;;;;;;2.33;0.82;;;;;12.00;99693.00;;;;10540462;27;20300;-73
2023/10/24 16:02:28;;;;;;;1.42;0.77;;;;;11.80;99708.00;;;;10501783;27;20211;-73
2023/10/24 16:07:30;;;;;;;2.33;1.20;;;;;11.60;99709.00;;;;10522007;28;20208;-72
2023/10/24 16:12:31;;;;;;;1.53;1.27;;;;;11.50;99699.00;;;;10527293;27;20303;-73
2023/10/24 16:17:33;;;;;;;5.63;1.53;;;;;11.30;99717.00;;;;10546277;27;20757;-73
2023/10/24 16:22:35;;;;;;;4.10;1.43;;;;;11.20;99706.00;;;;10527666;27;20219;-73
2023/10/24 16:27:37;;;;;;;5.57;1.30;;;;;11.00;99704.00;;;;10541072;28;20201;-73
2023/10/24 16:32:41;;;;;;;10.20;1.60;;;;;11.00;99695.00;;;;10526449;28;20228;-73
2023/10/24 16:37:43;;;;;;;2.73;1.17;;;;;11.00;99705.00;;;;10489640;27;20200;-73
2023/10/24 16:42:45;;;;;;;4.40;1.30;;;;;10.90;99699.00;;;;10503395;28;20306;-72
2023/10/24 16:47:47;;;;;;;2.60;1.23;;;;;10.80;99731.00;;;;10523231;28;20204;-72
2023/10/24 16:52:49;;;;;;;3.30;1.40;;;;;10.80;99724.00;;;;10518044;28;20243;-74
2023/10/24 16:57:51;;;;;;;2.73;1.73;;;;;10.80;99727.00;;;;10523711;28;20207;-73
2023/10/24 17:02:53;;;;;;;3.57;1.83;;;;;10.70;99727.00;;;;10522539;28;20236;-74
2023/10/24 17:07:55;;;;;;;2.67;2.20;;;;;10.70;99717.00;;;;10521590;28;20198;-73
2023/10/24 17:12:57;;;;;;;4.37;2.20;;;;;10.70;99719.00;;;;10514552;28;20216;-74
2023/10/24 17:17:59;;;;;;;3.23;1.90;;;;;10.60;99711.00;;;;10534581;28;20887;-73
2023/10/24 17:23:01;;;;;;;4.27;2.23;;;;;10.40;99713.00;;;;10514704;27;20609;-73
2023/10/24 17:28:04;;;;;;;3.83;2.07;;;;;10.40;99708.00;;;;10530316;28;20287;-74
2023/10/24 17:33:06;;;;;;;3.43;2.47;;;;;10.20;99715.00;;;;10515338;28;20247;-74
2023/10/24 17:38:08;;;;;;;6.43;3.03;;;;;10.20;99715.00;;;;10522912;28;20282;-74
2023/10/24 17:43:10;;;;;;;4.03;2.70;;;;;10.10;99716.00;;;;10525970;27;20200;-73
2023/10/24 17:48:11;;;;;;;4.33;2.67;;;;;10.10;99718.00;;;;10546466;27;20951;-73
2023/10/24 17:53:13;;;;;;;7.00;2.77;;;;;10.10;99726.00;;;;10548501;28;20877;-74
2023/10/24 17:58:15;;;;;;;4.23;2.43;;;;;10.10;99726.00;;;;10553089;27;20798;-73
2023/10/24 18:03:17;;;;;;;8.63;2.87;;;;;10.10;99728.00;;;;10527508;27;20216;-72
2023/10/24 18:08:19;;;;;;;9.50;3.40;;;;;10.00;99724.00;;;;10552390;27;20207;-71
2023/10/24 18:13:21;;;;;;;6.33;3.37;;;;;10.00;99724.00;;;;10543219;27;20224;-71
2023/10/24 18:18:23;;;;;;;7.17;3.80;;;;;9.90;99730.00;;;;10533478;27;20232;-71
2023/10/24 18:23:25;;;;;;;8.00;3.77;;;;;9.90;99727.00;;;;10551543;27;20220;-72
2023/10/24 18:28:29;;;;;;;6.67;3.60;;;;;9.90;99721.00;;;;10529927;27;20205;-72
2023/10/24 18:33:34;;;;;;;10.03;3.00;;;;;9.80;99715.00;;;;10545161;27;20581;-71
2023/10/24 18:38:42;;;;;;;6.80;3.23;;;;;9.80;99716.00;;;;10561509;27;20192;-71
2023/10/24 18:43:43;;;;;;;5.40;2.90;;;;;9.80;99723.00;;;;10560953;27;20200;-71
2023/10/24 18:48:45;;;;;;;6.70;2.70;;;;;9.80;99717.00;;;;10532201;28;20196;-71
2023/10/24 18:53:47;;;;;;;10.13;3.47;;;;;9.90;99719.00;;;;10527128;27;20209;-72
2023/10/24 18:58:49;;;;;;;4.50;2.57;;;;;9.90;99719.00;;;;10530410;27;20196;-71
2023/10/24 19:03:51;;;;;;;7.53;3.00;;;;;9.80;99722.00;;;;10533258;28;20628;-71
2023/10/24 19:08:53;;;;;;;12.33;3.20;;;;;9.80;99721.00;;;;10550232;27;20195;-71
2023/10/24 19:13:55;;;;;;;7.97;2.73;;;;;9.70;99717.00;;;;10522027;27;20224;-73
2023/10/24 19:18:58;;;;;;;6.60;3.30;;;;;9.60;99706.00;;;;10554327;27;20630;-73
2023/10/24 19:24:00;;;;;;;10.67;4.40;;;;;9.60;99715.00;;;;10537487;28;20227;-73
2023/10/24 19:29:03;;;;;;;12.63;5.13;;;;;9.50;99721.00;;;;10522431;27;20204;-73
2023/10/24 19:34:05;;;;;;;6.87;2.97;;;;;9.50;99727.00;;;;10549021;27;20279;-73
2023/10/24 19:39:08;;;;;;;8.70;3.00;;;;;9.50;99725.00;;;;10556383;27;20236;-73
2023/10/24 19:44:11;;;;;;;8.63;3.27;;;;;9.40;99721.00;;;;10549948;28;20278;-74
2023/10/24 19:49:13;;;;;;;9.00;3.63;;;;;9.50;99733.00;;;;10528320;28;20204;-73
2023/10/24 19:54:15;;;;;;;10.37;3.60;;;;;9.50;99734.00;;;;10520704;27;20255;-73
2023/10/24 19:59:19;;;;;;;12.53;4.90;;;;;9.50;99734.00;;;;10544694;27;20208;-73
2023/10/24 20:04:21;;;;;;;22.80;8.63;;;;;9.50;99737.00;;;;10531596;27;20280;-73
2023/10/24 20:09:23;;;;;;;28.67;10.00;;;;;9.50;99733.00;;;;10531293;27;20371;-73
2023/10/24 20:14:26;;;;;;;25.17;9.20;;;;;9.40;99731.00;;;;10541044;28;20244;-73
2023/10/24 20:19:28;;;;;;;18.43;7.33;;;;;9.30;99739.00;;;;10543410;28;20201;-73
2023/10/24 20:24:30;;;;;;;9.03;4.07;;;;;9.30;99734.00;;;;10520122;28;20200;-69
2023/10/24 20:29:32;;;;;;;5.83;3.33;;;;;9.20;99729.00;;;;10551097;27;20210;-70
2023/10/24 20:34:34;;;;;;;8.03;3.60;;;;;9.20;99733.00;;;;10550105;28;20224;-72
2023/10/24 20:39:36;;;;;;;6.30;2.97;;;;;9.20;99715.00;;;;10546807;27;20207;-70
2023/10/24 20:44:38;;;;;;;8.93;3.43;;;;;9.10;99730.00;;;;10534534;28;20192;-70
2023/10/24 20:49:40;;;;;;;6.57;3.50;;;;;9.00;99722.00;;;;10517420;28;20208;-71
2023/10/24 20:54:43;;;;;;;8.90;3.50;;;;;8.90;99727.00;;;;10553831;27;20680;-69
2023/10/24 20:59:45;;;;;;;9.93;3.40;;;;;8.90;99721.00;;;;10545320;27;20724;-71
2023/10/24 21:04:47;;;;;;;6.70;3.47;;;;;8.80;99734.00;;;;10546315;27;20224;-70
2023/10/24 21:09:49;;;;;;;6.27;3.03;;;;;8.80;99724.00;;;;10562680;27;20191;-70
2023/10/24 21:14:51;;;;;;;9.30;3.87;;;;;8.70;99721.00;;;;10552843;27;20224;-70
2023/10/24 21:19:53;;;;;;;7.00;3.03;;;;;8.70;99709.00;;;;10524460;28;20197;-72
2023/10/24 21:24:55;;;;;;;9.80;3.53;;;;;8.60;99714.00;;;;10552435;27;20317;-70
2023/10/24 21:29:57;;;;;;;5.47;3.60;;;;;8.60;99721.00;;;;10552412;27;20208;-70
2023/10/24 21:34:59;;;;;;;5.03;3.13;;;;;8.50;99724.00;;;;10535944;28;20217;-71
2023/10/24 21:40:02;;;;;;;7.37;4.37;;;;;8.40;99715.00;;;;10545985;27;20229;-71
2023/10/24 21:45:04;;;;;;;7.73;3.50;;;;;8.30;99708.00;;;;10539546;27;20189;-71
2023/10/24 21:50:06;;;;;;;7.67;3.83;;;;;8.20;99704.00;;;;10538189;28;20200;-71
2023/10/24 21:55:08;;;;;;;8.10;3.93;;;;;8.20;99701.00;;;;10554517;27;20928;-71
2023/10/24 22:00:15;;;;;;;9.77;3.90;;;;;8.10;99686.00;;;;10551321;27;20192;-71
2023/10/24 22:05:18;;;;;;;6.93;3.40;;;;;8.10;99678.00;;;;10528353;27;20845;-71
2023/10/24 22:10:20;;;;;;;5.17;2.67;;;;;8.20;99680.00;;;;10549373;27;20196;-71
2023/10/24 22:15:22;;;;;;;7.10;3.13;;;;;8.20;99675.00;;;;10545710;27;20778;-71
2023/10/24 22:20:24;;;;;;;9.77;3.43;;;;;8.20;99682.00;;;;10542562;28;21072;-72
2023/10/24 22:25:26;;;;;;;5.80;2.63;;;;;8.40;99678.00;;;;10550739;27;20201;-71
2023/10/24 22:30:28;;;;;;;9.97;3.07;;;;;8.50;99678.00;;;;10553832;27;20272;-71
2023/10/24 22:35:30;;;;;;;6.70;2.83;;;;;8.50;99664.00;;;;10549222;27;20853;-71
2023/10/24 22:40:32;;;;;;;10.23;2.77;;;;;8.50;99659.00;;;;10546877;27;20265;-71
2023/10/24 22:45:34;;;;;;;4.70;2.57;;;;;8.50;99657.00;;;;10542715;28;20275;-73
2023/10/24 22:50:36;;;;;;;7.13;2.73;;;;;8.50;99645.00;;;;10563547;27;20291;-73
2023/10/24 22:55:38;;;;;;;10.00;3.10;;;;;8.50;99648.00;;;;10564187;27;20253;-73
2023/10/24 23:00:40;;;;;;;6.87;2.80;;;;;8.50;99650.00;;;;10551411;27;20197;-73
2023/10/24 23:05:42;;;;;;;8.00;3.03;;;;;8.40;99648.00;;;;10549849;27;20210;-73
2023/10/24 23:10:44;;;;;;;14.03;2.90;;;;;8.40;99637.00;;;;10554614;27;20246;-73
2023/10/24 23:15:46;;;;;;;8.83;2.80;;;;;8.40;99640.00;;;;10529182;27;20217;-73
2023/10/24 23:20:48;;;;;;;9.60;3.00;;;;;8.50;99643.00;;;;10532531;27;20196;-73
2023/10/24 23:25:50;;;;;;;10.13;3.07;;;;;8.50;99639.00;;;;10555760;27;20244;-73
2023/10/24 23:30:52;;;;;;;10.73;3.13;;;;;8.70;99640.00;;;;10537517;28;20203;-73
2023/10/24 23:35:54;;;;;;;8.87;3.20;;;;;8.70;99644.00;;;;10543130;27;20298;-73
2023/10/24 23:40:56;;;;;;;9.20;3.23;;;;;8.80;99636.00;;;;10549895;27;20612;-73
2023/10/24 23:45:58;;;;;;;11.13;3.70;;;;;8.80;99637.00;;;;10536579;27;20885;-73
2023/10/24 23:51:00;;;;;;;7.17;3.90;;;;;8.90;99644.00;;;;10558393;27;20231;-72
2023/10/24 23:56:02;;;;;;;10.47;3.87;;;;;8.90;99637.00;;;;10553792;27;20220;-71
